Aérodrome :
LOGIN :

S'inscrire | Disclaimer

   EN    FR    IT 

 










Légende :    VFR   VFR Marginal   IFR   IFR Intensif   IFR Très Intensif
Visi : 
Plafond : 
>= 8 km
>= 3000ft
5 à 8 km
1000 à 3000 ft
1500m à 5 km
500 à 1000 ft
800 à 1500m
200 à 500 ft
< 800m
< 200 ft
Symboles :   Orages  Brouillard  Fortes neiges  Fortes précipitations  Vent > 20 kt
SIGMETs :   Divers  Orages  Givrage  Turbulence  Onde Orograph.  Cendres Volcan.






- Altitude de l'aérodrome : 162 ft
- Code IATA : BOD


LFBD - Bordeaux / Merignac

DERNIER METAR :
  • 261630Z AUTO 28011KT 9999 FEW028 BKN070 BKN140 09/05 Q1019 TEMPO 30015G25KT 4000 SHRA BKN020TCU

METARs EXPIRÉS :
  • 261600Z AUTO 29010KT 250V320 9999 FEW025/// BKN043/// BKN056/// ///TCU 09/06 Q1019 TEMPO 30015G25KT 4000 SHRA
  • 261530Z AUTO 31009KT 9999 FEW025/// SCT054/// ///TCU 09/06 Q1019 TEMPO 30015G25KT 4000 SHRA
  • 261500Z AUTO 29014KT 9999 FEW028/// BKN040/// BKN047/// ///TCU 10/05 Q1019 TEMPO 30015G25KT 4000 SHRA
  • 261430Z AUTO 30011KT 9999 SCT026/// BKN050/// BKN070/// ///TCU 09/05 Q1019 TEMPO 30015G25KT 4000 SHRA
  • 261400Z AUTO 30013KT 9999 FEW032/// BKN038/// BKN047/// ///TCU 09/05 Q1019 TEMPO 30015G25KT 4000 SHRA
  • 261330Z AUTO 30012KT 260V340 9999 FEW025/// SCT032/// BKN043/// ///TCU 10/05 Q1019 TEMPO 30015G25KT 4000 SHRA

TAF TAF LFBD
Valide du 26 à 12h jusqu'au 27 à 18h UTC


261100Z 2612/2718 33012KT 9999 SCT030 TX13/2715Z TN07/2700Z
TEMPO 2612/2620 30015G25KT 4000 SHRA BKN020TCU
BECMG 2700/2702 18012KT 5000 -RA BKN015
TEMPO 2702/2705 2000 RA OVC007
BECMG 2705/2708 27020G35KT
TEMPO 2708/2710 2000 RA OVC007
BECMG 2712/2714 9999 NSW BKN016
ATIS : +33 5 57 92 81 04



MET'MAP, la Météo Aéronautique d'un coup d'oeil ! - Copyright ORBIFLY Décembre 2007 - Disclaimer

ORBIFLY MET'MAP TEAM :

Programmation & Développement : Alexandra Zaïnal
Sur une idée originale de : Baudouin d'Aumeries
Assistance à la programmation : Marc-Olivier Méhu
Soutien technique & logistique : Manuel Goepfert

Contact : metmap@orbifly.com




SOURCES & CREDITS :

   NOAA